createdAt,value
2018-11-01T00:01:11.186Z,6.20
2018-11-01T00:03:40.232Z,6.20
2018-11-01T00:06:08.968Z,6.20
2018-11-01T00:08:37.979Z,6.20
2018-11-01T00:11:07.717Z,6.10
2018-11-01T00:13:36.400Z,6.10
2018-11-01T00:16:05.573Z,6.10
2018-11-01T00:18:34.166Z,6.20
2018-11-01T00:21:02.442Z,6.30
2018-11-01T00:23:30.752Z,6.50
2018-11-01T00:25:59.311Z,6.60
2018-11-01T00:28:27.579Z,6.60
2018-11-01T00:30:56.383Z,6.60
2018-11-01T00:33:24.676Z,6.60
2018-11-01T00:35:53.238Z,6.60
2018-11-01T00:38:22.272Z,6.60
2018-11-01T00:40:50.684Z,6.50
2018-11-01T00:43:18.950Z,6.50
2018-11-01T00:45:48.049Z,6.60
2018-11-01T00:48:16.448Z,6.60
2018-11-01T00:50:44.873Z,6.70
2018-11-01T00:53:13.172Z,6.80
2018-11-01T00:55:41.447Z,6.80
2018-11-01T00:58:09.710Z,6.90
2018-11-01T01:00:38.127Z,7.00
2018-11-01T01:03:06.377Z,7.10
2018-11-01T01:05:34.649Z,7.20
2018-11-01T01:08:02.959Z,7.20
2018-11-01T01:10:31.535Z,7.10
2018-11-01T01:13:00.088Z,7.20
2018-11-01T01:15:28.492Z,7.20
2018-11-01T01:17:57.052Z,7.30
2018-11-01T01:20:25.996Z,7.30
2018-11-01T01:22:54.565Z,7.30
2018-11-01T01:25:23.426Z,7.10
2018-11-01T01:27:52.377Z,7.00
2018-11-01T01:30:21.544Z,6.90
2018-11-01T01:32:50.340Z,6.90
2018-11-01T01:35:19.022Z,7.00
2018-11-01T01:37:47.641Z,6.80
2018-11-01T01:40:16.323Z,6.70
2018-11-01T01:42:50.339Z,6.70
2018-11-01T01:45:19.228Z,6.60
2018-11-01T01:47:47.774Z,6.50
2018-11-01T01:50:17.086Z,6.50
2018-11-01T01:52:46.172Z,6.50
2018-11-01T01:55:15.901Z,6.40
2018-11-01T01:57:44.420Z,6.40
2018-11-01T02:00:15.369Z,6.50
2018-11-01T02:02:45.087Z,6.70
2018-11-01T02:05:13.615Z,6.80
2018-11-01T02:07:42.700Z,6.90
2018-11-01T02:10:14.376Z,7.00
2018-11-01T02:12:43.148Z,7.00
2018-11-01T02:15:14.161Z,7.00
2018-11-01T02:17:42.936Z,7.10
2018-11-01T02:20:13.433Z,7.10
2018-11-01T02:22:43.341Z,7.10
2018-11-01T02:25:12.391Z,7.10
2018-11-01T02:27:46.478Z,7.10
2018-11-01T02:30:16.367Z,7.00
2018-11-01T02:32:45.165Z,7.00
2018-11-01T02:35:15.305Z,7.00
2018-11-01T02:37:44.789Z,7.10
2018-11-01T02:40:14.169Z,7.10
2018-11-01T02:42:42.902Z,7.10
2018-11-01T02:45:12.450Z,7.10
2018-11-01T02:47:41.233Z,7.10
2018-11-01T02:50:11.002Z,7.10
2018-11-01T02:52:39.408Z,7.00
2018-11-01T02:55:08.805Z,6.90
2018-11-01T02:57:37.596Z,6.90
2018-11-01T03:00:07.952Z,6.80
2018-11-01T03:02:36.584Z,6.70
2018-11-01T03:05:05.741Z,6.70
2018-11-01T03:07:34.018Z,6.80
2018-11-01T03:10:02.650Z,6.80
2018-11-01T03:12:30.955Z,6.80
2018-11-01T03:14:59.505Z,6.80
2018-11-01T03:17:27.801Z,6.80
2018-11-01T03:19:56.119Z,6.60
2018-11-01T03:22:24.384Z,6.50
2018-11-01T03:24:52.759Z,6.50
2018-11-01T03:27:21.095Z,6.50
2018-11-01T03:29:49.646Z,6.40
2018-11-01T03:34:50.947Z,6.60
2018-11-01T03:37:19.488Z,6.70
2018-11-01T03:39:47.770Z,6.60
2018-11-01T03:42:16.200Z,6.50
2018-11-01T03:44:44.512Z,6.40
2018-11-01T03:47:13.049Z,6.30
2018-11-01T03:49:41.342Z,6.40
2018-11-01T03:52:09.629Z,6.40
2018-11-01T03:54:37.974Z,6.40
2018-11-01T03:57:07.431Z,6.30
2018-11-01T03:59:36.116Z,6.20
2018-11-01T04:02:04.650Z,6.20
2018-11-01T04:04:33.125Z,6.20
2018-11-01T04:07:01.388Z,6.20
2018-11-01T04:09:29.641Z,6.20
2018-11-01T04:11:58.319Z,6.20
2018-11-01T04:14:26.601Z,6.10
2018-11-01T04:16:55.219Z,6.10
2018-11-01T04:19:23.654Z,6.20
2018-11-01T04:21:58.595Z,6.10
2018-11-01T04:24:27.248Z,6.10
2018-11-01T04:26:55.533Z,6.20
2018-11-01T04:29:23.972Z,6.20
2018-11-01T04:31:52.555Z,6.10
2018-11-01T04:34:21.041Z,6.10
2018-11-01T04:36:49.328Z,6.00
2018-11-01T04:39:17.653Z,6.00
2018-11-01T04:41:45.929Z,5.90
2018-11-01T04:44:14.431Z,5.90
2018-11-01T04:46:43.345Z,5.80
2018-11-01T04:49:11.885Z,5.80
2018-11-01T04:51:40.189Z,5.80
2018-11-01T04:54:08.662Z,5.80
2018-11-01T04:56:37.007Z,5.90
2018-11-01T04:59:05.351Z,5.90
2018-11-01T05:01:33.912Z,6.00
2018-11-01T05:04:02.543Z,5.90
2018-11-01T05:06:30.944Z,6.00
2018-11-01T05:08:59.360Z,5.90
2018-11-01T05:11:27.664Z,6.00
2018-11-01T05:13:56.441Z,6.00
2018-11-01T05:16:24.752Z,5.90
2018-11-01T05:18:53.347Z,5.90
2018-11-01T05:21:21.641Z,5.90
2018-11-01T05:23:50.204Z,5.90
2018-11-01T05:26:18.745Z,5.80
2018-11-01T05:28:47.043Z,5.70
2018-11-01T05:31:15.595Z,5.70
2018-11-01T05:33:43.923Z,5.70
2018-11-01T05:36:12.516Z,5.70
2018-11-01T05:38:41.275Z,5.70
2018-11-01T05:41:09.924Z,5.60
2018-11-01T05:43:38.466Z,5.60
2018-11-01T05:46:07.137Z,5.60
2018-11-01T05:48:35.409Z,5.60
2018-11-01T05:51:03.670Z,5.70
2018-11-01T05:53:32.365Z,5.70
2018-11-01T05:56:00.640Z,5.70
2018-11-01T05:58:28.956Z,5.70
2018-11-01T06:00:57.354Z,5.70
2018-11-01T06:03:25.636Z,5.70
2018-11-01T06:05:54.206Z,5.70
2018-11-01T06:08:25.239Z,5.80
2018-11-01T06:10:53.679Z,5.90
2018-11-01T06:13:22.355Z,5.90
2018-11-01T06:15:50.912Z,6.10
2018-11-01T06:18:19.172Z,6.10
2018-11-01T06:20:47.688Z,6.10
2018-11-01T06:23:16.381Z,6.10
2018-11-01T06:25:44.661Z,6.10
2018-11-01T06:28:12.980Z,6.20
2018-11-01T06:30:41.510Z,6.20
2018-11-01T06:33:10.079Z,6.40
2018-11-01T06:35:40.934Z,6.50
2018-11-01T06:38:09.387Z,6.40
2018-11-01T06:40:37.666Z,6.40
2018-11-01T06:43:06.291Z,6.30
2018-11-01T06:45:34.885Z,6.20
2018-11-01T06:48:03.429Z,6.20
2018-11-01T06:50:32.284Z,6.20
2018-11-01T06:53:00.592Z,6.30
2018-11-01T06:55:28.862Z,6.40
2018-11-01T06:57:57.199Z,6.50
2018-11-01T07:00:25.813Z,6.50
2018-11-01T07:02:54.108Z,6.70
2018-11-01T07:05:22.757Z,7.00
2018-11-01T07:07:51.214Z,7.10
2018-11-01T07:10:19.520Z,7.20
2018-11-01T07:12:47.832Z,7.10
2018-11-01T07:15:16.855Z,6.90
2018-11-01T07:17:45.277Z,6.70
2018-11-01T07:20:15.064Z,6.70
2018-11-01T07:22:43.895Z,6.70
2018-11-01T07:25:13.342Z,6.70
2018-11-01T07:27:42.113Z,6.80
2018-11-01T07:30:12.871Z,6.90
2018-11-01T07:32:41.280Z,7.00
2018-11-01T07:35:11.162Z,7.10
2018-11-01T07:37:40.688Z,7.20
2018-11-01T07:40:12.168Z,7.50
2018-11-01T07:42:40.886Z,7.70
2018-11-01T07:45:10.584Z,7.80
2018-11-01T07:47:40.192Z,7.80
2018-11-01T07:50:09.533Z,7.80
2018-11-01T07:52:38.148Z,7.80
2018-11-01T07:55:08.018Z,7.90
2018-11-01T07:57:36.348Z,7.90
2018-11-01T08:00:08.142Z,8.00
2018-11-01T08:02:37.497Z,7.90
2018-11-01T08:05:06.821Z,7.40
2018-11-01T08:07:35.108Z,7.80
2018-11-01T08:10:03.842Z,7.90
2018-11-01T08:12:32.186Z,7.90
2018-11-01T08:15:00.756Z,7.90
2018-11-01T08:17:29.324Z,7.90
2018-11-01T08:19:57.957Z,8.00
2018-11-01T08:22:26.765Z,8.00
2018-11-01T08:24:56.432Z,8.00
2018-11-01T08:27:25.203Z,8.10
2018-11-01T08:29:53.804Z,8.10
2018-11-01T08:32:22.104Z,8.30
2018-11-01T08:34:50.480Z,8.30
2018-11-01T08:37:19.133Z,8.40
2018-11-01T08:39:47.421Z,8.20
2018-11-01T08:42:15.819Z,8.50
2018-11-01T08:44:44.391Z,8.40
2018-11-01T08:47:13.148Z,8.40
2018-11-01T08:49:43.088Z,8.40
2018-11-01T08:52:11.485Z,8.30
2018-11-01T08:54:45.515Z,8.30
2018-11-01T08:57:14.122Z,8.30
2018-11-01T08:59:42.949Z,8.40
2018-11-01T09:02:11.236Z,8.40
2018-11-01T09:04:39.632Z,8.40
2018-11-01T09:07:08.875Z,8.40
2018-11-01T09:09:37.181Z,8.50
2018-11-01T09:12:06.050Z,8.50
2018-11-01T09:14:34.343Z,8.60
2018-11-01T09:17:03.083Z,8.60
2018-11-01T09:19:31.597Z,8.60
2018-11-01T09:22:00.161Z,8.60
2018-11-01T09:24:28.730Z,8.60
2018-11-01T09:26:57.521Z,8.70
2018-11-01T09:29:26.193Z,8.70
2018-11-01T09:31:54.739Z,8.70
2018-11-01T09:34:23.285Z,8.80
2018-11-01T09:36:51.573Z,8.90
2018-11-01T09:39:20.333Z,8.80
2018-11-01T09:41:48.870Z,8.70
2018-11-01T09:44:17.159Z,8.70
2018-11-01T09:46:46.028Z,8.70
2018-11-01T09:49:14.804Z,8.80
2018-11-01T09:51:43.094Z,8.80
2018-11-01T09:54:12.194Z,8.80
2018-11-01T09:56:40.518Z,8.90
2018-11-01T09:59:09.219Z,9.00
2018-11-01T10:01:37.780Z,8.90
2018-11-01T10:04:06.273Z,8.90
2018-11-01T10:06:34.873Z,8.90
2018-11-01T10:09:04.881Z,8.90
2018-11-01T10:11:33.196Z,9.00
2018-11-01T10:14:01.948Z,8.90
2018-11-01T10:16:30.587Z,8.90
2018-11-01T10:18:58.984Z,8.90
2018-11-01T10:21:27.321Z,8.90
2018-11-01T10:23:56.097Z,8.90
2018-11-01T10:26:24.539Z,9.00
2018-11-01T10:28:52.824Z,9.00
2018-11-01T10:31:21.511Z,9.00
2018-11-01T10:33:49.860Z,9.10
2018-11-01T10:36:18.309Z,9.20
2018-11-01T10:38:46.598Z,9.30
2018-11-01T10:41:15.129Z,9.40
2018-11-01T10:43:43.512Z,9.50
2018-11-01T10:46:11.849Z,9.70
2018-11-01T10:48:40.508Z,9.80
2018-11-01T10:51:08.955Z,9.90
2018-11-01T10:53:37.562Z,9.90
2018-11-01T10:56:06.256Z,9.90
2018-11-01T10:58:34.848Z,9.90
2018-11-01T11:01:08.614Z,10.00
2018-11-01T11:03:37.315Z,10.10
2018-11-01T11:06:06.279Z,10.20
2018-11-01T11:08:34.580Z,10.30
2018-11-01T11:11:02.940Z,10.50
2018-11-01T11:13:31.242Z,10.60
2018-11-01T11:15:59.844Z,10.60
2018-11-01T11:18:28.425Z,10.70
2018-11-01T11:20:57.293Z,10.70
2018-11-01T11:23:25.780Z,10.70
2018-11-01T11:25:54.183Z,10.70
2018-11-01T11:28:22.796Z,10.60
2018-11-01T11:30:51.072Z,10.70
2018-11-01T11:33:19.787Z,10.80
2018-11-01T11:35:48.348Z,10.90
2018-11-01T11:38:17.072Z,11.00
2018-11-01T11:40:45.391Z,11.10
2018-11-01T11:43:13.676Z,11.10
2018-11-01T11:45:42.236Z,11.10
2018-11-01T11:48:10.580Z,11.10
2018-11-01T11:50:39.016Z,11.10
2018-11-01T11:53:07.575Z,11.10
2018-11-01T11:55:35.978Z,11.10
2018-11-01T11:58:04.287Z,11.10
2018-11-01T12:00:32.567Z,11.10
2018-11-01T12:03:01.148Z,11.10
2018-11-01T12:05:29.592Z,11.10
2018-11-01T12:07:58.642Z,11.20
2018-11-01T12:10:26.990Z,11.20
2018-11-01T12:12:56.427Z,11.20
2018-11-01T12:15:25.044Z,11.20
2018-11-01T12:17:53.383Z,11.20
2018-11-01T12:20:22.025Z,11.20
2018-11-01T12:22:50.300Z,11.20
2018-11-01T12:25:19.194Z,11.30
2018-11-01T12:27:47.500Z,11.30
2018-11-01T12:30:15.839Z,11.40
2018-11-01T12:32:44.489Z,11.30
2018-11-01T12:35:13.279Z,11.40
2018-11-01T12:37:42.699Z,11.50
2018-11-01T12:40:12.736Z,11.70
2018-11-01T12:42:41.778Z,11.60
2018-11-01T12:45:11.931Z,11.70
2018-11-01T12:47:40.589Z,11.70
2018-11-01T12:50:10.704Z,11.70
2018-11-01T12:52:39.532Z,11.60
2018-11-01T12:55:08.449Z,11.60
2018-11-01T12:57:36.788Z,11.60
2018-11-01T13:00:06.511Z,11.50
2018-11-01T13:02:35.130Z,11.50
2018-11-01T13:05:03.598Z,11.60
2018-11-01T13:07:32.188Z,11.50
2018-11-01T13:10:00.636Z,11.50
2018-11-01T13:14:49.460Z,11.50
2018-11-01T13:17:17.996Z,11.50
2018-11-01T13:19:46.274Z,11.40
2018-11-01T13:22:14.611Z,11.40
2018-11-01T13:24:43.080Z,11.50
2018-11-01T13:27:11.366Z,11.50
2018-11-01T13:29:39.822Z,11.50
2018-11-01T13:32:08.369Z,11.60
2018-11-01T13:34:36.857Z,11.50
2018-11-01T13:37:05.362Z,11.50
2018-11-01T13:39:33.843Z,11.50
2018-11-01T13:42:02.765Z,11.50
2018-11-01T13:44:31.339Z,11.60
2018-11-01T13:47:00.159Z,11.60
2018-11-01T13:49:28.901Z,11.60
2018-11-01T13:51:58.512Z,11.60
2018-11-01T13:54:27.531Z,11.60
2018-11-01T13:56:56.501Z,11.60
2018-11-01T13:59:25.859Z,11.50
2018-11-01T14:01:54.137Z,11.50
2018-11-01T14:04:22.699Z,11.50
2018-11-01T14:06:51.337Z,11.50
2018-11-01T14:09:19.640Z,11.50
2018-11-01T14:11:48.219Z,11.60
2018-11-01T14:14:16.980Z,11.60
2018-11-01T14:16:45.532Z,11.70
2018-11-01T14:19:14.030Z,11.70
2018-11-01T14:21:42.615Z,11.90
2018-11-01T14:24:10.876Z,11.90
2018-11-01T14:26:39.144Z,12.00
2018-11-01T14:29:08.184Z,12.10
2018-11-01T14:31:36.766Z,12.10
2018-11-01T14:34:05.896Z,12.20
2018-11-01T14:36:34.223Z,12.30
2018-11-01T14:39:02.569Z,12.40
2018-11-01T14:41:31.168Z,12.40
2018-11-01T14:43:59.517Z,12.40
2018-11-01T14:46:27.801Z,12.40
2018-11-01T14:48:56.265Z,12.40
2018-11-01T14:51:24.815Z,12.40
2018-11-01T14:53:53.987Z,12.40
